Flight Track Log - Related Links

Times and Time Zones

All times are in EDT time to prevent confusion due to time zone crossing. See the C-GIWO flight status page for this flight to view local times or setup timezone preferences in your user account.

Time Position Orientation Groundspeed Altitude Reporting Facility
EDT Latitude Longitude Course Direction KTS MPH feet Rate Location/Type
Thu 11:22:38 AM 53.3000 -113.6333 21° North 190 219 5,200  Level Edmonton Center
Thu 11:23:38 AM 53.3667 -113.6333 360° North 240 276 9,900 4,300 Climbing Edmonton Center
Thu 11:24:38 AM 53.3833 -113.4833 79° East 290 334 13,800 3,700 Climbing Edmonton Center
Thu 11:25:38 AM 53.4500 -113.4167 31° Northeast 270 311 17,300 3,500 Climbing Edmonton Center
Thu 11:26:38 AM 53.5167 -113.3667 24° Northeast 270 311 20,800 3,300 Climbing Edmonton Center
Thu 11:27:00 AM 53.8697 -113.2135 21° North  Level Estimated
Thu 11:27:38 AM 53.5833 -113.3000 31° Northeast 280 322 23,900  Level Edmonton Center
Thu 11:28:00 AM 53.9629 -113.1515 21° North  Level Estimated
Thu 11:28:38 AM 53.6667 -113.2667 13° North 280 322 26,300  Level Edmonton Center
Thu 11:29:38 AM 53.7500 -113.2167 20° North 300 345 28,600 2,100 Climbing Edmonton Center
Thu 11:30:38 AM 53.8167 -113.1833 16° North 310 357 30,500 1,700 Climbing Edmonton Center
Thu 11:31:38 AM 53.9167 -113.1000 26° Northeast 320 368 32,000 1,350 Climbing Edmonton Center
Thu 11:32:38 AM 54.0000 -113.0333 25° Northeast 340 391 33,200 1,250 Climbing Edmonton Center
Thu 11:33:38 AM 54.0833 -113.0000 13° North 350 403 34,500 900 Climbing Edmonton Center
Thu 11:34:38 AM 54.2000 -112.9333 18° North 360 414 35,000 250 Climbing Edmonton Center
Thu 11:35:38 AM 54.2833 -112.8667 25° Northeast 380 437 35,000  Level Edmonton Center
Thu 11:36:38 AM 54.3833 -112.8000 21° North 380 437 35,000  Level Edmonton Center
Thu 11:37:38 AM 54.5000 -112.7333 18° North 380 437 35,000  Level Edmonton Center
Thu 11:38:38 AM 54.6000 -112.6667 21° North 380 437 35,000  Level Edmonton Center
Thu 11:39:38 AM 54.7000 -112.6000 21° North 380 437 35,000  Level Edmonton Center
Thu 11:40:38 AM 54.8000 -112.5333 21° North 390 449 35,000  Level Edmonton Center
Thu 11:41:38 AM 54.8833 -112.4500 30° Northeast 390 449 35,000  Level Edmonton Center
Thu 11:42:38 AM 55.0000 -112.3833 18° North 390 449 35,000  Level Edmonton Center
Thu 11:43:38 AM 55.1000 -112.2833 30° Northeast 390 449 35,000  Level Edmonton Center
Thu 11:44:38 AM 55.2167 -112.2167 18° North 390 449 35,000  Level Edmonton Center
Thu 11:45:38 AM 55.3000 -112.1500 24° Northeast 390 449 35,000  Level Edmonton Center
Thu 11:46:38 AM 55.4000 -112.0667 25° Northeast 390 449 35,000  Level Edmonton Center
Thu 11:47:38 AM 55.5167 -111.9667 26° Northeast 390 449 35,000 -750 Level Edmonton Center
Thu 11:48:38 AM 55.6167 -111.9000 21° North 400 460 33,500 -2,150 Descending Edmonton Center
Thu 11:49:38 AM 55.7167 -111.8333 21° North 400 460 30,700 -3,050 Descending Edmonton Center
Thu 11:50:38 AM 55.8167 -111.7500 25° Northeast 400 460 27,400 -3,200 Descending Edmonton Center
Thu 11:51:38 AM 55.9167 -111.6833 20° North 390 449 24,300 -3,250 Descending Edmonton Center
Thu 11:52:38 AM 56.0333 -111.5833 26° Northeast 390 449 20,900 -3,100 Descending Edmonton Center
Thu 11:53:38 AM 56.1167 -111.5000 29° Northeast 380 437 18,100 -2,750 Descending Edmonton Center
Thu 11:54:38 AM 56.2000 -111.4333 24° Northeast 360 414 15,400 -2,800 Descending Edmonton Center
Thu 11:55:38 AM 56.3000 -111.3833 16° North 350 403 12,500 -2,500 Descending Edmonton Center
Thu 11:56:38 AM 56.3833 -111.3000 29° Northeast 300 345 10,400 -2,200 Descending Edmonton Center
Thu 11:57:38 AM 56.4500 -111.2500 23° Northeast 270 311 8,100 -1,900 Descending Edmonton Center
Thu 11:58:38 AM 56.5167 -111.2000 22° Northeast 240 276 6,600 -1,400 Descending Edmonton Center
Thu 11:59:38 AM 56.5667 -111.1500 29° Northeast 210 242 5,300 -1,550 Descending Edmonton Center
Thu 12:00:38 PM 56.6000 -111.1333 15° North 180 207 3,500 -1,350 Descending Edmonton Center
Thu 12:01:38 PM 56.6333 -111.1667 331° Northwest 160 184 2,600 -900 Descending Edmonton Center

Login

Don't have an account? Register now (free) for customized features, flight alerts, and more!